Time;durP1;ratioP1;P1;durP2;ratioP2;P2;SDS_P1;SDS_P2;PMS_P1;PMS_P2;Temp;Humidity;BMP_temperature;BMP_pressure;BME280_temperature;BME280_humidity;BME280_pressure;Samples;Min_cycle;Max_cycle;Signal;HPM_P1;HPM_P2
2023/08/29 00:01:10;;;;;;;0.80;0.80;;;12.00;99.90;;;;;;4985915;28;20050;-76
2023/08/29 00:03:36;;;;;;;1.00;0.85;;;12.00;99.90;;;;;;4970967;28;20050;-76
2023/08/29 00:06:05;;;;;;;0.70;0.65;;;12.00;99.90;;;;;;4964365;28;20077;-76
2023/08/29 00:08:34;;;;;;;0.60;0.60;;;11.90;99.90;;;;;;4969555;28;20118;-76
2023/08/29 00:11:02;;;;;;;0.63;0.63;;;11.90;99.90;;;;;;4969980;28;20042;-76
2023/08/29 00:13:28;;;;;;;0.77;0.57;;;11.90;99.90;;;;;;4970513;28;20133;-76
2023/08/29 00:15:55;;;;;;;1.00;0.70;;;11.80;99.90;;;;;;4953893;28;20042;-76
2023/08/29 00:18:21;;;;;;;0.98;0.70;;;11.70;99.90;;;;;;4970491;28;20078;-76
2023/08/29 00:20:48;;;;;;;0.70;0.70;;;11.70;99.90;;;;;;4965079;28;20042;-76
2023/08/29 00:23:14;;;;;;;1.00;0.80;;;11.70;99.90;;;;;;4977334;28;20085;-76
2023/08/29 00:25:40;;;;;;;0.95;0.85;;;11.70;99.90;;;;;;4968751;28;20089;-76
2023/08/29 00:28:07;;;;;;;0.70;0.70;;;11.60;99.90;;;;;;4967364;28;20035;-76
2023/08/29 00:30:37;;;;;;;1.15;0.70;;;11.60;99.90;;;;;;4970301;28;20043;-76
2023/08/29 00:33:04;;;;;;;0.88;0.80;;;11.60;99.90;;;;;;4961792;28;20077;-77
2023/08/29 00:35:29;;;;;;;1.15;1.05;;;11.60;99.90;;;;;;4970364;28;20039;-76
2023/08/29 00:37:55;;;;;;;1.10;1.00;;;11.70;99.90;;;;;;4938391;28;20050;-76
2023/08/29 00:40:21;;;;;;;0.93;0.77;;;11.60;99.90;;;;;;4970573;28;20061;-77
2023/08/29 00:42:47;;;;;;;0.88;0.77;;;11.60;99.90;;;;;;4970695;28;20043;-77
2023/08/29 00:45:13;;;;;;;1.23;0.82;;;11.60;99.90;;;;;;4968869;28;20057;-77
2023/08/29 00:47:40;;;;;;;0.77;0.70;;;11.60;99.90;;;;;;4963136;28;20039;-76
2023/08/29 00:50:09;;;;;;;0.82;0.80;;;11.50;99.90;;;;;;5002679;28;20042;-77
2023/08/29 00:52:35;;;;;;;0.60;0.60;;;11.50;99.90;;;;;;5000469;28;20046;-76
2023/08/29 00:55:02;;;;;;;0.70;0.60;;;11.40;99.90;;;;;;4953696;28;20051;-76
2023/08/29 00:57:28;;;;;;;0.70;0.70;;;11.40;99.90;;;;;;4959058;28;20125;-77
2023/08/29 00:59:54;;;;;;;0.70;0.70;;;11.40;99.90;;;;;;4972409;28;20062;-76
2023/08/29 01:02:19;;;;;;;1.00;0.90;;;11.40;99.90;;;;;;4994044;28;20041;-77
2023/08/29 01:04:45;;;;;;;0.90;0.73;;;11.50;99.90;;;;;;4964807;28;20039;-77
2023/08/29 01:07:12;;;;;;;1.00;0.77;;;11.50;99.90;;;;;;4962281;28;20501;-76
2023/08/29 01:09:38;;;;;;;1.45;0.80;;;11.40;99.90;;;;;;4964252;28;20522;-76
2023/08/29 01:12:17;;;;;;;1.17;0.80;;;11.40;99.90;;;;;;4965464;28;20043;-76
2023/08/29 01:15:03;;;;;;;2.55;1.00;;;11.40;99.90;;;;;;4964173;28;20039;-76
2023/08/29 01:17:34;;;;;;;0.90;0.80;;;11.40;99.90;;;;;;4972551;28;20061;-76
2023/08/29 01:20:01;;;;;;;0.70;0.70;;;11.40;99.90;;;;;;4962853;28;20065;-76
2023/08/29 01:22:39;;;;;;;0.70;0.70;;;11.30;99.90;;;;;;4968234;28;20518;-76
2023/08/29 01:25:11;;;;;;;0.75;0.70;;;11.30;99.90;;;;;;4984482;28;20117;-76
2023/08/29 01:27:38;;;;;;;0.82;0.80;;;11.30;99.90;;;;;;4965597;28;20054;-76
2023/08/29 01:30:05;;;;;;;0.95;0.73;;;11.30;99.90;;;;;;4938867;28;20038;-76
2023/08/29 01:32:32;;;;;;;0.70;0.70;;;11.30;99.90;;;;;;4977743;28;20077;-76
2023/08/29 01:34:57;;;;;;;;;;;11.20;99.90;;;;;;4957698;28;20090;-76
2023/08/29 01:37:23;;;;;;;1.73;0.93;;;11.20;99.90;;;;;;5002175;28;20326;-77
2023/08/29 01:39:50;;;;;;;1.13;0.70;;;11.20;99.90;;;;;;4970458;28;20043;-76
2023/08/29 01:42:16;;;;;;;0.90;0.80;;;11.10;99.90;;;;;;4980198;28;20495;-76
2023/08/29 01:44:41;;;;;;;0.80;0.77;;;11.10;99.90;;;;;;4972808;28;20043;-76
2023/08/29 01:47:07;;;;;;;0.60;0.60;;;11.10;99.90;;;;;;4960346;28;20043;-76
2023/08/29 01:49:35;;;;;;;0.70;0.70;;;11.10;99.90;;;;;;4969936;28;20101;-76
2023/08/29 01:52:00;;;;;;;1.65;0.90;;;11.10;99.90;;;;;;4972260;28;20134;-77
2023/08/29 01:54:27;;;;;;;1.05;0.70;;;11.10;99.90;;;;;;5003677;28;20142;-76
2023/08/29 01:56:55;;;;;;;0.80;0.70;;;11.10;99.90;;;;;;4969910;28;20051;-76
2023/08/29 01:59:22;;;;;;;0.90;0.80;;;11.10;99.90;;;;;;4983813;28;20068;-76
2023/08/29 02:01:47;;;;;;;1.00;0.90;;;11.10;99.90;;;;;;4980208;28;20491;-77
2023/08/29 02:04:13;;;;;;;1.10;0.82;;;11.10;99.90;;;;;;4966801;28;20039;-76
2023/08/29 02:06:39;;;;;;;0.70;0.70;;;11.10;99.90;;;;;;4951331;28;20475;-77
2023/08/29 02:09:05;;;;;;;0.80;0.80;;;11.10;99.90;;;;;;4967291;28;20147;-77
2023/08/29 02:11:30;;;;;;;0.73;0.70;;;11.00;99.90;;;;;;4992555;28;20050;-76
2023/08/29 02:13:56;;;;;;;1.13;1.00;;;11.00;99.90;;;;;;4950960;28;20049;-77
2023/08/29 02:16:24;;;;;;;1.02;0.70;;;11.00;99.90;;;;;;4965532;28;20048;-76
2023/08/29 02:18:53;;;;;;;1.00;0.80;;;11.00;99.90;;;;;;4964098;28;20034;-76
2023/08/29 02:21:18;;;;;;;1.00;0.80;;;10.90;99.90;;;;;;4960660;28;20494;-76
2023/08/29 02:23:44;;;;;;;0.60;0.60;;;10.90;99.90;;;;;;4954158;28;20066;-76
2023/08/29 02:26:10;;;;;;;1.00;0.90;;;10.90;99.90;;;;;;4966483;28;20082;-76
2023/08/29 02:28:37;;;;;;;0.60;0.60;;;10.80;99.90;;;;;;4955514;28;20066;-76
2023/08/29 02:31:04;;;;;;;1.08;0.70;;;10.80;99.90;;;;;;4963795;28;20402;-76
2023/08/29 02:33:30;;;;;;;0.95;0.70;;;10.70;99.90;;;;;;4972022;28;20491;-76
2023/08/29 02:35:56;;;;;;;;;;;10.70;99.90;;;;;;4965452;28;20344;-76
2023/08/29 02:38:22;;;;;;;0.80;0.80;;;10.70;99.90;;;;;;5003253;28;21212;-76
2023/08/29 02:40:47;;;;;;;1.13;0.80;;;10.70;99.90;;;;;;4975560;28;20073;-76
2023/08/29 02:43:13;;;;;;;0.80;0.80;;;10.70;99.90;;;;;;4959492;28;20050;-76
2023/08/29 02:45:38;;;;;;;0.98;0.70;;;10.70;99.90;;;;;;4962930;28;20130;-77
2023/08/29 02:48:05;;;;;;;1.70;0.70;;;10.70;99.90;;;;;;4965132;28;20055;-76
2023/08/29 02:50:31;;;;;;;;;;;10.70;99.90;;;;;;4971568;28;20059;-76
2023/08/29 02:52:56;;;;;;;0.70;0.70;;;10.70;99.90;;;;;;4958328;28;19928;-76
2023/08/29 02:55:22;;;;;;;0.55;0.55;;;10.70;99.90;;;;;;4957741;28;20133;-76
2023/08/29 02:57:48;;;;;;;0.65;0.65;;;10.70;99.90;;;;;;4960208;28;20044;-76
2023/08/29 03:00:14;;;;;;;0.98;0.70;;;10.70;99.90;;;;;;4954162;28;20054;-76
2023/08/29 03:02:40;;;;;;;;;;;10.60;99.90;;;;;;4955602;28;20092;-76
2023/08/29 03:05:06;;;;;;;0.70;0.60;;;10.60;99.90;;;;;;4971241;28;20405;-76
2023/08/29 03:07:31;;;;;;;1.13;0.77;;;10.60;99.90;;;;;;4997025;28;20443;-76
2023/08/29 03:09:57;;;;;;;0.55;0.55;;;10.60;99.90;;;;;;4968902;28;20114;-76
2023/08/29 03:12:23;;;;;;;0.85;0.60;;;10.60;99.90;;;;;;4954713;28;20066;-77
2023/08/29 03:14:53;;;;;;;0.70;0.70;;;10.60;99.90;;;;;;4966752;28;20042;-77
2023/08/29 03:17:19;;;;;;;0.65;0.60;;;10.60;99.90;;;;;;4996018;28;20051;-77
2023/08/29 03:19:47;;;;;;;0.63;0.63;;;10.60;99.90;;;;;;4967671;28;20046;-76
2023/08/29 03:22:13;;;;;;;0.80;0.75;;;10.60;99.90;;;;;;4970600;28;20047;-76
2023/08/29 03:24:39;;;;;;;;;;;10.60;99.90;;;;;;4965875;28;20663;-76
2023/08/29 03:27:05;;;;;;;0.85;0.68;;;10.60;99.90;;;;;;4952980;28;19919;-76
2023/08/29 03:29:30;;;;;;;1.02;0.68;;;10.60;99.90;;;;;;4970499;28;20134;-76
2023/08/29 03:31:56;;;;;;;0.57;0.57;;;10.60;99.90;;;;;;4970590;28;20074;-76
2023/08/29 03:34:22;;;;;;;0.60;0.60;;;10.60;99.90;;;;;;4962246;28;20150;-77
2023/08/29 03:36:47;;;;;;;0.73;0.60;;;10.60;99.90;;;;;;4938664;28;20046;-76
2023/08/29 03:39:13;;;;;;;0.68;0.68;;;10.50;99.90;;;;;;4949085;28;20091;-77
2023/08/29 03:41:39;;;;;;;0.73;0.45;;;10.50;99.90;;;;;;4969136;28;20521;-76
2023/08/29 03:44:05;;;;;;;1.00;0.50;;;10.60;99.90;;;;;;4946504;28;20039;-76
2023/08/29 03:46:31;;;;;;;0.50;0.40;;;10.60;99.90;;;;;;4948152;28;20075;-76
2023/08/29 03:48:57;;;;;;;0.68;0.50;;;10.60;99.90;;;;;;4972570;28;20070;-76
2023/08/29 03:51:23;;;;;;;0.88;0.60;;;10.60;99.90;;;;;;4970054;28;20082;-77
2023/08/29 03:53:48;;;;;;;0.50;0.50;;;10.50;99.90;;;;;;4964630;28;20478;-76
2023/08/29 03:56:15;;;;;;;0.50;0.50;;;10.50;99.90;;;;;;4961998;28;20047;-77
2023/08/29 03:58:40;;;;;;;0.68;0.60;;;10.50;99.90;;;;;;4963966;28;20145;-76
2023/08/29 04:01:07;;;;;;;0.40;0.40;;;10.50;99.90;;;;;;5003051;28;20078;-76
2023/08/29 04:03:33;;;;;;;0.38;0.38;;;10.50;99.90;;;;;;4972471;28;20052;-76
2023/08/29 04:06:00;;;;;;;0.40;0.40;;;10.50;99.90;;;;;;4984552;28;20039;-77
2023/08/29 04:08:25;;;;;;;0.43;0.43;;;10.50;99.90;;;;;;4968191;28;20078;-76
2023/08/29 04:10:51;;;;;;;0.38;0.38;;;10.40;99.90;;;;;;4942232;28;20070;-76
2023/08/29 04:13:17;;;;;;;0.40;0.40;;;10.40;99.90;;;;;;4968434;28;20051;-76
2023/08/29 04:15:43;;;;;;;0.40;0.40;;;10.40;99.90;;;;;;4969791;28;20054;-76
2023/08/29 04:18:09;;;;;;;0.40;0.40;;;10.40;99.90;;;;;;4969303;28;20043;-76
2023/08/29 04:20:35;;;;;;;;;;;10.40;99.90;;;;;;4970551;28;20494;-76
2023/08/29 04:23:03;;;;;;;0.60;0.60;;;10.30;99.90;;;;;;4954031;28;20000;-77
2023/08/29 04:25:30;;;;;;;0.30;0.30;;;10.30;99.90;;;;;;4983542;28;20102;-77
2023/08/29 04:27:56;;;;;;;0.70;0.60;;;10.20;99.90;;;;;;4958704;28;20038;-77
2023/08/29 04:30:21;;;;;;;0.43;0.40;;;10.20;99.90;;;;;;4950461;28;20179;-73
2023/08/29 04:32:50;;;;;;;0.43;0.38;;;10.20;99.90;;;;;;4964152;28;20114;-73
2023/08/29 04:35:17;;;;;;;0.50;0.40;;;10.10;99.90;;;;;;4945742;28;20074;-73
2023/08/29 04:37:47;;;;;;;0.70;0.50;;;10.10;99.90;;;;;;4969930;28;20517;-73
2023/08/29 04:40:15;;;;;;;0.68;0.50;;;10.10;99.90;;;;;;4968394;28;20410;-73
2023/08/29 04:42:41;;;;;;;0.30;0.30;;;10.00;99.90;;;;;;4952918;28;20057;-73
2023/08/29 04:45:07;;;;;;;0.43;0.43;;;9.90;99.90;;;;;;4967507;28;20126;-73
2023/08/29 04:47:34;;;;;;;0.40;0.40;;;9.90;99.90;;;;;;4967468;28;20042;-73
2023/08/29 04:50:00;;;;;;;0.55;0.55;;;9.90;99.90;;;;;;4963832;28;20153;-73
2023/08/29 04:52:27;;;;;;;0.55;0.50;;;9.90;99.90;;;;;;4961914;28;20069;-73
2023/08/29 04:54:56;;;;;;;0.80;0.57;;;9.90;99.90;;;;;;4969134;28;20042;-73
2023/08/29 04:57:22;;;;;;;0.55;0.55;;;9.90;99.90;;;;;;4970203;28;20391;-72
2023/08/29 04:59:48;;;;;;;0.60;0.60;;;10.00;99.90;;;;;;4966160;28;20094;-73
2023/08/29 05:02:14;;;;;;;;;;;10.00;99.90;;;;;;4984214;28;20058;-73
2023/08/29 05:04:42;;;;;;;0.50;0.50;;;10.00;99.90;;;;;;4960671;28;19926;-73
2023/08/29 05:07:09;;;;;;;0.70;0.70;;;10.00;99.90;;;;;;4965461;28;20487;-73
2023/08/29 05:09:35;;;;;;;0.52;0.52;;;10.00;99.90;;;;;;4997682;28;20593;-73
2023/08/29 05:12:00;;;;;;;0.70;0.60;;;10.00;99.90;;;;;;4995067;28;20133;-73
2023/08/29 05:14:26;;;;;;;0.75;0.63;;;10.00;99.90;;;;;;4970104;28;20050;-73
2023/08/29 05:16:52;;;;;;;0.50;0.50;;;10.00;99.90;;;;;;4975620;28;20412;-73
2023/08/29 05:19:18;;;;;;;0.60;0.50;;;10.00;99.90;;;;;;4963894;28;20505;-73
2023/08/29 05:21:43;;;;;;;0.50;0.50;;;10.10;99.90;;;;;;4964622;28;20047;-73
2023/08/29 05:24:10;;;;;;;0.52;0.50;;;10.10;99.90;;;;;;4966433;28;20034;-73
2023/08/29 05:26:35;;;;;;;0.63;0.63;;;10.10;99.90;;;;;;4948221;28;20039;-73
2023/08/29 05:29:01;;;;;;;0.50;0.50;;;10.10;99.90;;;;;;4952779;28;20129;-73
2023/08/29 05:31:27;;;;;;;0.68;0.60;;;10.10;99.90;;;;;;4924509;29;20051;-77
2023/08/29 05:33:52;;;;;;;0.57;0.50;;;10.10;99.90;;;;;;4956887;28;20053;-78
2023/08/29 05:36:18;;;;;;;0.60;0.60;;;10.10;99.90;;;;;;4962846;28;20047;-75
2023/08/29 05:38:44;;;;;;;0.50;0.50;;;10.20;99.90;;;;;;4966468;28;20096;-77
2023/08/29 05:41:09;;;;;;;0.45;0.40;;;10.30;99.90;;;;;;4965628;28;20545;-76
2023/08/29 05:43:35;;;;;;;0.40;0.40;;;10.30;99.90;;;;;;4979056;28;20047;-76
2023/08/29 05:46:02;;;;;;;0.57;0.55;;;10.40;99.90;;;;;;4953125;28;20165;-77
2023/08/29 05:48:28;;;;;;;0.68;0.60;;;10.50;99.90;;;;;;4983549;28;20030;-77
2023/08/29 05:50:54;;;;;;;0.55;0.55;;;10.60;99.90;;;;;;4968334;28;20054;-76
2023/08/29 05:53:20;;;;;;;0.70;0.40;;;10.70;99.90;;;;;;4944579;28;20043;-77
2023/08/29 05:55:46;;;;;;;0.50;0.50;;;10.80;99.90;;;;;;4952868;28;20054;-76
2023/08/29 05:58:12;;;;;;;0.40;0.40;;;10.80;99.90;;;;;;4959886;28;20051;-77
2023/08/29 06:00:38;;;;;;;1.00;0.57;;;11.00;99.90;;;;;;4971134;28;20051;-76
2023/08/29 06:03:06;;;;;;;0.77;0.70;;;11.10;99.90;;;;;;4936871;28;20404;-76
2023/08/29 06:05:33;;;;;;;0.95;0.60;;;11.20;99.90;;;;;;4978443;28;20117;-76
2023/08/29 06:08:03;;;;;;;0.60;0.60;;;11.30;99.90;;;;;;4976941;28;20081;-76
2023/08/29 06:10:29;;;;;;;1.10;0.90;;;11.50;99.90;;;;;;4993258;28;20105;-76
2023/08/29 06:12:56;;;;;;;1.05;0.80;;;11.50;99.90;;;;;;4976897;28;20047;-76
2023/08/29 06:15:24;;;;;;;0.60;0.60;;;11.60;99.90;;;;;;4971431;28;20135;-77
2023/08/29 06:17:51;;;;;;;0.68;0.68;;;11.70;99.90;;;;;;4947840;28;20410;-77
2023/08/29 06:20:17;;;;;;;1.50;1.20;;;11.80;99.90;;;;;;4969751;28;20085;-76
2023/08/29 06:22:42;;;;;;;;;;;11.90;99.90;;;;;;4971447;28;20083;-77
2023/08/29 06:25:09;;;;;;;1.52;1.38;;;12.10;99.90;;;;;;4971320;28;19922;-76
2023/08/29 06:27:36;;;;;;;1.30;1.20;;;12.20;99.90;;;;;;4978764;28;20483;-76
2023/08/29 06:30:03;;;;;;;1.00;0.90;;;12.40;99.90;;;;;;4952083;28;20104;-77
2023/08/29 06:32:29;;;;;;;0.70;0.70;;;12.70;99.90;;;;;;4968785;28;20722;-77
2023/08/29 06:34:55;;;;;;;1.00;0.90;;;13.00;99.90;;;;;;4964001;28;20042;-77
2023/08/29 06:37:21;;;;;;;0.57;0.57;;;13.60;99.90;;;;;;5003715;28;20374;-76
2023/08/29 06:39:47;;;;;;;0.60;0.55;;;14.30;99.90;;;;;;4962602;28;20205;-76
2023/08/29 06:42:13;;;;;;;1.08;0.98;;;14.70;99.90;;;;;;4953686;28;20078;-76
2023/08/29 06:44:39;;;;;;;0.82;0.80;;;15.10;99.90;;;;;;4972231;28;20047;-76
2023/08/29 06:47:05;;;;;;;1.23;0.80;;;15.60;99.90;;;;;;4966974;28;20027;-77
2023/08/29 06:49:31;;;;;;;0.77;0.70;;;15.90;99.90;;;;;;4969985;28;20094;-77
2023/08/29 06:51:56;;;;;;;0.80;0.80;;;16.30;99.90;;;;;;4967078;28;20053;-77
2023/08/29 06:54:22;;;;;;;1.65;1.10;;;16.40;99.90;;;;;;4960622;28;20046;-77
2023/08/29 06:56:49;;;;;;;0.90;0.82;;;16.30;99.90;;;;;;4968436;28;20348;-80
2023/08/29 06:59:15;;;;;;;0.70;0.70;;;16.40;99.90;;;;;;4953559;28;20372;-79
2023/08/29 07:01:41;;;;;;;1.52;0.90;;;16.50;99.90;;;;;;4968065;28;20063;-79
2023/08/29 07:04:09;;;;;;;1.05;0.70;;;16.50;99.90;;;;;;4969295;28;20105;-78
2023/08/29 07:06:35;;;;;;;0.82;0.70;;;16.50;99.90;;;;;;4965828;28;20046;-79
2023/08/29 07:09:01;;;;;;;0.70;0.70;;;16.80;99.90;;;;;;4967541;28;20047;-79
2023/08/29 07:11:26;;;;;;;0.90;0.80;;;17.00;99.90;;;;;;5001296;28;20043;-79
2023/08/29 07:13:52;;;;;;;1.40;0.95;;;17.30;99.90;;;;;;4961436;28;20030;-78
2023/08/29 07:16:18;;;;;;;0.70;0.70;;;17.40;99.90;;;;;;4971011;28;20494;-79
2023/08/29 07:18:44;;;;;;;0.82;0.75;;;17.60;99.90;;;;;;4966781;28;20039;-80
2023/08/29 07:21:10;;;;;;;1.00;0.88;;;17.70;99.90;;;;;;4950163;28;20061;-78
2023/08/29 07:23:36;;;;;;;;;;;17.60;99.90;;;;;;4966391;28;20394;-80
2023/08/29 07:26:02;;;;;;;0.70;0.70;;;17.60;99.90;;;;;;4970137;28;19937;-81
2023/08/29 07:28:28;;;;;;;1.05;0.60;;;17.50;99.90;;;;;;4955061;28;20071;-79
2023/08/29 07:30:53;;;;;;;0.98;0.70;;;17.40;99.90;;;;;;4970865;28;20398;-79
2023/08/29 07:33:20;;;;;;;0.80;0.80;;;17.50;99.90;;;;;;4960055;28;20043;-80
2023/08/29 07:35:47;;;;;;;1.05;0.77;;;17.40;99.90;;;;;;4971197;28;20042;-80
2023/08/29 07:38:14;;;;;;;0.77;0.70;;;17.30;99.90;;;;;;4969854;28;20049;-79
2023/08/29 07:40:39;;;;;;;1.30;0.70;;;17.20;99.90;;;;;;4977292;28;20039;-80
2023/08/29 07:43:09;;;;;;;;;;;17.20;99.90;;;;;;4971660;28;20380;-80
2023/08/29 07:45:36;;;;;;;0.57;0.50;;;17.20;99.90;;;;;;4972244;28;19988;-80
2023/08/29 07:48:02;;;;;;;;;;;17.30;99.90;;;;;;4965142;28;20478;-81
2023/08/29 07:50:28;;;;;;;0.77;0.60;;;17.30;99.90;;;;;;4971531;28;19973;-80
2023/08/29 07:52:53;;;;;;;;;;;17.30;99.90;;;;;;4950372;29;20050;-80
2023/08/29 07:55:20;;;;;;;0.90;0.75;;;17.20;99.90;;;;;;4999444;28;19918;-79
2023/08/29 07:57:46;;;;;;;0.77;0.70;;;17.10;99.90;;;;;;4971714;28;20073;-80
2023/08/29 08:00:12;;;;;;;1.40;0.80;;;17.00;99.90;;;;;;4986988;28;20133;-80
2023/08/29 08:02:38;;;;;;;;;;;17.00;99.90;;;;;;4968416;28;20482;-80
2023/08/29 08:05:10;;;;;;;2.13;0.93;;;17.00;99.90;;;;;;4969216;28;19921;-80
2023/08/29 08:07:36;;;;;;;1.55;0.77;;;16.90;99.90;;;;;;4971024;28;20081;-80
2023/08/29 08:10:04;;;;;;;1.08;0.73;;;16.90;99.90;;;;;;4969928;28;20038;-80
2023/08/29 08:12:34;;;;;;;0.88;0.70;;;16.90;99.90;;;;;;4999216;28;20512;-80
2023/08/29 08:15:01;;;;;;;0.88;0.50;;;17.00;99.90;;;;;;4976596;28;20046;-80
2023/08/29 08:17:27;;;;;;;0.70;0.65;;;17.10;99.90;;;;;;4965247;28;20399;-80
2023/08/29 08:19:53;;;;;;;;;;;17.10;56.70;;;;;;4969602;28;20042;-78
2023/08/29 08:22:18;;;;;;;1.55;0.60;;;17.30;99.90;;;;;;4996462;28;20339;-80
2023/08/29 08:24:44;;;;;;;;;;;17.30;99.90;;;;;;4963986;28;20508;-80
2023/08/29 08:27:10;;;;;;;0.70;0.65;;;17.50;1.00;;;;;;4965272;28;20014;-80
2023/08/29 08:29:35;;;;;;;;;;;17.60;99.90;;;;;;4967802;28;20049;-79
2023/08/29 08:32:01;;;;;;;1.00;0.50;;;17.70;1.00;;;;;;4969597;28;19996;-79
2023/08/29 08:34:27;;;;;;;;;;;17.70;97.40;;;;;;4953784;28;20058;-79
2023/08/29 08:36:53;;;;;;;1.75;0.60;;;18.10;99.90;;;;;;4983963;28;19918;-80
2023/08/29 08:39:18;;;;;;;;;;;18.10;99.90;;;;;;4937510;28;20069;-79
2023/08/29 08:41:44;;;;;;;0.40;0.30;;;18.20;1.00;;;;;;4979981;28;19966;-79
2023/08/29 08:44:13;;;;;;;;;;;18.10;99.90;;;;;;4953839;28;20043;-80
2023/08/29 08:46:39;;;;;;;0.77;0.40;;;17.90;99.90;;;;;;4967515;28;20611;-79
2023/08/29 08:49:04;;;;;;;;;;;18.00;99.90;;;;;;4953455;28;20043;-80
2023/08/29 08:51:31;;;;;;;0.90;0.60;;;17.90;1.00;;;;;;4953432;28;19965;-79
2023/08/29 08:53:57;;;;;;;1.30;0.55;;;17.90;1.00;;;;;;4964004;28;20043;-79
2023/08/29 08:56:24;;;;;;;0.60;0.30;;;18.10;99.90;;;;;;4954152;28;20054;-79
2023/08/29 08:58:50;;;;;;;0.70;0.50;;;18.00;1.00;;;;;;4969658;28;20090;-79
2023/08/29 09:01:15;;;;;;;;;;;18.20;10.20;;;;;;4970882;28;20086;-79
2023/08/29 09:03:42;;;;;;;0.40;0.30;;;18.40;99.90;;;;;;4986598;28;20061;-79
2023/08/29 09:06:09;;;;;;;1.35;0.45;;;18.60;1.00;;;;;;4952573;28;20058;-80
2023/08/29 09:08:36;;;;;;;0.73;0.50;;;18.40;1.00;;;;;;4963908;28;20039;-79
2023/08/29 09:11:04;;;;;;;1.05;0.68;;;18.50;73.20;;;;;;4953557;28;20398;-80
2023/08/29 09:13:30;;;;;;;0.70;0.38;;;18.40;1.00;;;;;;4970240;28;20113;-79
2023/08/29 09:16:00;;;;;;;;;;;18.50;99.90;;;;;;4972058;28;20125;-79
2023/08/29 09:18:31;;;;;;;0.95;0.80;;;18.60;86.40;;;;;;5000357;28;19918;-79
2023/08/29 09:21:00;;;;;;;1.48;1.02;;;18.50;1.00;;;;;;4966869;28;20455;-80
2023/08/29 09:23:30;;;;;;;1.33;0.70;;;18.50;99.90;;;;;;4971661;28;20483;-79
2023/08/29 09:25:58;;;;;;;1.75;0.80;;;18.60;99.90;;;;;;4972795;28;20042;-79
2023/08/29 09:28:29;;;;;;;2.47;1.00;;;18.90;99.90;;;;;;4970867;28;20039;-79
2023/08/29 09:31:07;;;;;;;0.70;0.70;;;18.90;99.90;;;;;;4972774;28;20026;-79
2023/08/29 09:33:34;;;;;;;0.82;0.65;;;18.80;1.00;;;;;;4956781;28;20489;-79
2023/08/29 09:36:07;;;;;;;2.00;1.00;;;19.10;99.90;;;;;;4971551;28;20147;-80
2023/08/29 09:38:34;;;;;;;1.70;1.00;;;19.20;1.00;;;;;;4988580;28;20138;-80
2023/08/29 09:41:00;;;;;;;1.52;1.05;;;19.20;1.00;;;;;;4960880;28;20467;-79
2023/08/29 09:43:30;;;;;;;1.60;0.90;;;19.00;14.40;;;;;;4954489;28;20038;-79
2023/08/29 09:45:57;;;;;;;1.27;0.82;;;19.00;59.30;;;;;;4998515;28;20153;-80
2023/08/29 09:48:22;;;;;;;1.52;0.77;;;19.00;1.00;;;;;;4986341;28;20109;-80
2023/08/29 09:50:50;;;;;;;0.85;0.60;;;18.90;81.80;;;;;;4969227;28;20179;-79
2023/08/29 09:53:20;;;;;;;1.35;0.70;;;19.10;99.90;;;;;;4954111;28;20043;-79
2023/08/29 09:55:49;;;;;;;1.33;0.73;;;19.10;99.90;;;;;;4972741;28;20402;-80
2023/08/29 09:58:21;;;;;;;1.40;0.90;;;19.10;99.90;;;;;;4954536;28;20499;-80
2023/08/29 10:00:48;;;;;;;1.52;0.90;;;19.10;79.80;;;;;;4973252;28;20046;-79
2023/08/29 10:03:16;;;;;;;1.48;1.00;;;19.10;99.90;;;;;;4971306;28;20126;-79
2023/08/29 10:05:45;;;;;;;0.80;0.60;;;19.20;99.90;;;;;;4952954;28;20039;-79
2023/08/29 10:08:11;;;;;;;1.17;0.90;;;19.40;99.90;;;;;;4973400;28;20039;-79
2023/08/29 10:10:45;;;;;;;1.15;1.02;;;19.30;1.00;;;;;;4953176;28;20380;-80
2023/08/29 10:13:18;;;;;;;0.85;0.75;;;19.30;47.60;;;;;;4959012;28;20142;-76
2023/08/29 10:15:46;;;;;;;1.60;0.98;;;19.30;82.90;;;;;;4964164;28;20123;-80
2023/08/29 10:18:12;;;;;;;0.70;0.70;;;19.10;99.90;;;;;;4956338;28;20043;-80
2023/08/29 10:20:43;;;;;;;1.75;1.00;;;19.10;99.90;;;;;;5002841;28;20046;-79
2023/08/29 10:23:10;;;;;;;1.13;0.80;;;19.10;1.00;;;;;;4972646;28;20483;-79
2023/08/29 10:25:38;;;;;;;0.98;0.80;;;19.20;1.00;;;;;;4956708;28;20047;-79
2023/08/29 10:28:06;;;;;;;1.15;0.50;;;19.30;48.70;;;;;;4968971;28;20061;-79
2023/08/29 10:30:33;;;;;;;0.80;0.60;;;19.50;40.40;;;;;;4972444;28;20058;-79
2023/08/29 10:33:01;;;;;;;0.95;0.70;;;19.50;99.90;;;;;;4967854;28;20074;-79
2023/08/29 10:35:31;;;;;;;1.63;0.80;;;19.50;1.00;;;;;;4952560;28;20685;-79
2023/08/29 10:38:01;;;;;;;0.90;0.63;;;19.40;1.00;;;;;;4970176;28;20081;-79
2023/08/29 10:40:35;;;;;;;0.50;0.50;;;19.60;1.00;;;;;;4955827;28;20082;-79
2023/08/29 10:43:02;;;;;;;0.98;0.80;;;19.90;43.60;;;;;;4969804;28;20039;-79
2023/08/29 10:45:53;;;;;;;0.88;0.80;;;19.90;99.90;;;;;;4970779;28;20043;-79
2023/08/29 10:48:21;;;;;;;1.85;1.15;;;20.20;1.00;;;;;;4972397;28;20039;-79
2023/08/29 10:51:10;;;;;;;1.35;1.08;;;20.10;99.90;;;;;;4973393;28;20094;-79
2023/08/29 10:53:40;;;;;;;1.17;0.90;;;20.20;99.90;;;;;;4943175;28;20035;-80
2023/08/29 10:56:07;;;;;;;0.77;0.65;;;20.20;1.00;;;;;;4968265;28;20085;-80
2023/08/29 10:58:38;;;;;;;0.90;0.80;;;20.50;1.00;;;;;;4968352;28;20047;-79
2023/08/29 11:01:28;;;;;;;1.30;1.10;;;20.90;13.40;;;;;;4966537;28;20065;-80
2023/08/29 11:03:59;;;;;;;1.38;1.15;;;20.70;99.90;;;;;;4961394;28;20110;-79
2023/08/29 11:06:48;;;;;;;1.45;1.13;;;20.70;99.90;;;;;;4970195;28;20051;-77
2023/08/29 11:09:23;;;;;;;1.27;1.10;;;20.50;1.00;;;;;;4965113;28;20077;-76
2023/08/29 11:12:24;;;;;;;1.77;1.35;;;20.70;99.90;;;;;;4986712;28;20372;-76
2023/08/29 11:14:55;;;;;;;1.13;1.00;;;20.40;99.90;;;;;;4922013;29;20110;-76
2023/08/29 11:17:24;;;;;;;1.30;1.00;;;20.60;70.00;;;;;;4957438;28;20066;-76
2023/08/29 11:19:57;;;;;;;0.98;0.90;;;20.40;99.90;;;;;;4985049;28;20114;-75
2023/08/29 11:22:26;;;;;;;0.60;0.60;;;20.40;1.00;;;;;;4946156;28;20035;-76
2023/08/29 11:24:54;;;;;;;1.08;0.98;;;20.60;1.00;;;;;;4968131;28;20042;-77
2023/08/29 11:27:24;;;;;;;2.75;0.90;;;20.40;99.90;;;;;;4965771;28;20138;-76
2023/08/29 11:29:52;;;;;;;0.88;0.82;;;20.60;99.90;;;;;;4975114;28;20511;-77
2023/08/29 11:32:21;;;;;;;0.80;0.80;;;20.60;1.00;;;;;;4963015;28;20054;-76
2023/08/29 11:34:54;;;;;;;1.60;0.82;;;20.50;99.90;;;;;;4968857;28;20050;-77
2023/08/29 11:37:23;;;;;;;0.60;0.60;;;20.80;51.50;;;;;;4986508;28;20070;-77
2023/08/29 11:39:58;;;;;;;1.17;0.70;;;21.00;1.00;;;;;;4985546;28;20054;-76
2023/08/29 11:42:28;;;;;;;1.08;0.50;;;21.20;1.00;;;;;;4953552;28;20043;-76
2023/08/29 11:44:54;;;;;;;0.55;0.50;;;21.30;99.90;;;;;;4967494;28;20053;-76
2023/08/29 11:47:22;;;;;;;1.00;0.60;;;21.30;99.90;;;;;;4984139;28;20047;-76
2023/08/29 11:49:51;;;;;;;0.80;0.77;;;21.10;99.90;;;;;;4961443;28;21622;-76
2023/08/29 11:52:17;;;;;;;1.27;0.82;;;20.90;99.90;;;;;;4969374;28;20061;-77
2023/08/29 11:54:52;;;;;;;2.42;0.93;;;20.70;99.90;;;;;;4969817;28;20042;-75
2023/08/29 11:57:18;;;;;;;0.70;0.60;;;20.50;99.90;;;;;;4964175;28;20113;-76
2023/08/29 11:59:46;;;;;;;1.33;0.93;;;20.50;99.90;;;;;;4967673;28;20054;-84
2023/08/29 12:02:13;;;;;;;1.48;0.98;;;20.30;99.90;;;;;;4968778;28;20572;-77
2023/08/29 12:04:44;;;;;;;1.38;0.90;;;20.20;99.90;;;;;;4984983;28;20042;-77
2023/08/29 12:07:15;;;;;;;1.10;0.70;;;20.10;99.90;;;;;;4951908;28;20113;-76
2023/08/29 12:09:45;;;;;;;0.63;0.52;;;20.10;99.90;;;;;;4968555;28;20053;-75
2023/08/29 12:12:30;;;;;;;0.70;0.65;;;20.30;99.90;;;;;;4998504;28;20057;-77
2023/08/29 12:14:56;;;;;;;1.83;0.88;;;20.30;99.90;;;;;;4968969;28;20043;-77
2023/08/29 12:17:23;;;;;;;1.40;1.10;;;20.30;99.90;;;;;;4964810;28;20050;-76
2023/08/29 12:19:49;;;;;;;1.85;1.05;;;20.20;99.90;;;;;;4967607;28;20039;-77
2023/08/29 12:22:21;;;;;;;1.02;0.82;;;20.20;99.90;;;;;;4959664;28;20061;-77
2023/08/29 12:24:58;;;;;;;1.10;0.80;;;20.40;99.90;;;;;;4963693;28;20581;-77
2023/08/29 12:27:24;;;;;;;2.55;1.33;;;20.40;99.90;;;;;;4949121;28;20526;-77
2023/08/29 12:29:53;;;;;;;2.22;1.00;;;20.20;99.90;;;;;;4963486;28;20039;-77
2023/08/29 12:32:28;;;;;;;1.63;0.70;;;20.10;99.90;;;;;;4964099;28;20039;-77
2023/08/29 12:34:57;;;;;;;1.88;1.05;;;20.30;1.00;;;;;;4959174;28;20050;-78
2023/08/29 12:37:24;;;;;;;1.67;1.38;;;20.10;99.90;;;;;;4995649;28;20058;-77
2023/08/29 12:39:50;;;;;;;1.95;1.20;;;20.00;1.00;;;;;;4963845;28;20035;-79
2023/08/29 12:42:17;;;;;;;0.95;0.82;;;19.90;1.00;;;;;;4969573;28;20047;-78
2023/08/29 12:44:43;;;;;;;1.17;0.98;;;20.20;99.90;;;;;;4975212;28;20054;-78
2023/08/29 12:47:09;;;;;;;1.70;0.90;;;20.40;1.00;;;;;;4963552;28;20129;-78
2023/08/29 12:49:37;;;;;;;0.90;0.73;;;20.40;1.00;;;;;;4968709;28;20114;-78
2023/08/29 12:52:04;;;;;;;0.77;0.60;;;20.40;1.00;;;;;;4970632;28;20081;-78
2023/08/29 12:54:30;;;;;;;1.55;1.10;;;20.60;55.60;;;;;;4965239;28;20489;-78